createdAt,value
2017-01-08T00:00:45.690Z,1018.73
2017-01-08T00:01:45.478Z,1018.75
2017-01-08T00:02:45.395Z,1018.74
2017-01-08T00:03:45.311Z,1018.76
2017-01-08T00:04:45.276Z,1018.73
2017-01-08T00:05:45.300Z,1018.7
2017-01-08T00:06:45.155Z,1018.68
2017-01-08T00:07:45.074Z,1018.66
2017-01-08T00:08:44.951Z,1018.64
2017-01-08T00:09:44.963Z,1018.61
2017-01-08T00:10:44.907Z,1018.66
2017-01-08T00:11:44.830Z,1018.68
2017-01-08T00:12:44.768Z,1018.69
2017-01-08T00:13:44.712Z,1018.7
2017-01-08T00:14:44.613Z,1018.71
2017-01-08T00:15:44.625Z,1018.73
2017-01-08T00:16:44.554Z,1018.81
2017-01-08T00:17:44.395Z,1018.73
2017-01-08T00:18:44.512Z,1018.76
2017-01-08T00:19:44.323Z,1018.71
2017-01-08T00:20:44.296Z,1018.76
2017-01-08T00:21:44.207Z,1018.75
2017-01-08T00:22:44.225Z,1018.79
2017-01-08T00:23:44.086Z,1018.78
2017-01-08T00:24:44.029Z,1018.81
2017-01-08T00:25:44.148Z,1018.79
2017-01-08T00:26:43.902Z,1018.8
2017-01-08T00:27:43.851Z,1018.83
2017-01-08T00:28:43.776Z,1018.83
2017-01-08T00:29:43.731Z,1018.85
2017-01-08T00:30:43.677Z,1018.81
2017-01-08T00:31:43.548Z,1018.84
2017-01-08T00:32:43.532Z,1018.83
2017-01-08T00:33:43.414Z,1018.87
2017-01-08T00:34:43.431Z,1018.85
2017-01-08T00:35:43.390Z,1018.87
2017-01-08T00:36:43.293Z,1018.87
2017-01-08T00:37:43.264Z,1018.83
2017-01-08T00:38:43.173Z,1018.83
2017-01-08T00:39:43.210Z,1018.82
2017-01-08T00:40:43.094Z,1018.85
2017-01-08T00:41:43.071Z,1018.85
2017-01-08T00:42:42.924Z,1018.86
2017-01-08T00:43:42.900Z,1018.85
2017-01-08T00:44:42.778Z,1018.84
2017-01-08T00:45:42.759Z,1018.88
2017-01-08T00:46:42.657Z,1018.84
2017-01-08T00:47:42.595Z,1018.88
2017-01-08T00:48:42.571Z,1018.87
2017-01-08T00:49:42.486Z,1018.82
2017-01-08T00:50:42.417Z,1018.85
2017-01-08T00:51:42.527Z,1018.84
2017-01-08T00:52:42.306Z,1018.85
2017-01-08T00:53:42.464Z,1018.84
2017-01-08T00:54:42.137Z,1018.84
2017-01-08T00:55:42.103Z,1018.83
2017-01-08T00:56:42.081Z,1018.84
2017-01-08T00:57:41.966Z,1018.86
2017-01-08T00:58:41.950Z,1018.86
2017-01-08T00:59:41.869Z,1018.85
2017-01-08T01:01:10.510Z,1018.88
2017-01-08T01:02:10.446Z,1018.85
2017-01-08T01:03:10.384Z,1018.87
2017-01-08T01:04:10.320Z,1018.86
2017-01-08T01:05:10.259Z,1018.87
2017-01-08T01:06:10.198Z,1018.87
2017-01-08T01:07:10.136Z,1018.92
2017-01-08T01:08:10.075Z,1018.89
2017-01-08T01:09:10.011Z,1018.84
2017-01-08T01:10:09.951Z,1018.81
2017-01-08T01:11:09.887Z,1018.79
2017-01-08T01:12:09.825Z,1018.78
2017-01-08T01:13:09.773Z,1018.78
2017-01-08T01:14:09.703Z,1018.77
2017-01-08T01:15:09.640Z,1018.76
2017-01-08T01:16:09.577Z,1018.81
2017-01-08T01:17:09.524Z,1018.84
2017-01-08T01:18:09.462Z,1018.84
2017-01-08T01:19:09.423Z,1018.89
2017-01-08T01:20:09.373Z,1018.86
2017-01-08T01:21:09.269Z,1018.89
2017-01-08T01:22:09.207Z,1018.91
2017-01-08T01:23:09.143Z,1018.87
2017-01-08T01:24:09.082Z,1018.9
2017-01-08T01:25:09.021Z,1018.91
2017-01-08T01:26:08.958Z,1018.91
2017-01-08T01:27:08.897Z,1018.93
2017-01-08T01:28:08.835Z,1018.94
2017-01-08T01:29:08.773Z,1018.93
2017-01-08T01:30:08.711Z,1018.93
2017-01-08T01:31:08.648Z,1018.97
2017-01-08T01:32:08.587Z,1018.95
2017-01-08T01:33:08.523Z,1018.97
2017-01-08T01:34:08.463Z,1019
2017-01-08T01:35:08.400Z,1018.96
2017-01-08T01:36:08.338Z,1018.98
2017-01-08T01:37:08.277Z,1018.99
2017-01-08T01:38:08.215Z,1018.92
2017-01-08T01:39:08.154Z,1018.89
2017-01-08T01:40:08.091Z,1018.89
2017-01-08T01:41:08.030Z,1018.89
2017-01-08T01:42:07.966Z,1018.92
2017-01-08T01:43:07.906Z,1018.89
2017-01-08T01:44:08.045Z,1018.9
2017-01-08T01:45:07.781Z,1018.94
2017-01-08T01:46:07.720Z,1018.94
2017-01-08T01:47:07.657Z,1018.87
2017-01-08T01:48:07.595Z,1018.9
2017-01-08T01:49:07.532Z,1018.93
2017-01-08T01:50:07.471Z,1018.95
2017-01-08T01:51:07.409Z,1018.96
2017-01-08T01:52:07.346Z,1018.95
2017-01-08T01:53:07.285Z,1018.98
2017-01-08T01:54:07.223Z,1018.98
2017-01-08T01:55:07.161Z,1018.97
2017-01-08T01:56:07.099Z,1018.98
2017-01-08T01:57:07.037Z,1018.95
2017-01-08T01:58:06.975Z,1018.96
2017-01-08T01:59:06.913Z,1018.88
2017-01-08T02:00:06.850Z,1018.83
2017-01-08T02:01:06.791Z,1018.83
2017-01-08T02:02:06.728Z,1018.81
2017-01-08T02:03:06.665Z,1018.84
2017-01-08T02:04:06.604Z,1018.82
2017-01-08T02:05:06.541Z,1018.84
2017-01-08T02:06:06.479Z,1018.86
2017-01-08T02:07:06.418Z,1018.82
2017-01-08T02:08:06.354Z,1018.8
2017-01-08T02:09:06.293Z,1018.83
2017-01-08T02:10:06.231Z,1018.83
2017-01-08T02:11:06.171Z,1018.85
2017-01-08T02:12:06.107Z,1018.91
2017-01-08T02:13:06.045Z,1018.85
2017-01-08T02:14:05.981Z,1018.88
2017-01-08T02:15:05.920Z,1018.95
2017-01-08T02:16:05.859Z,1018.93
2017-01-08T02:17:05.796Z,1018.95
2017-01-08T02:18:05.734Z,1018.96
2017-01-08T02:19:05.673Z,1018.98
2017-01-08T02:20:05.610Z,1018.95
2017-01-08T02:21:05.547Z,1018.94
2017-01-08T02:22:05.485Z,1019.01
2017-01-08T02:23:05.423Z,1018.98
2017-01-08T02:24:05.363Z,1018.99
2017-01-08T02:25:05.299Z,1019.02
2017-01-08T02:26:05.238Z,1019.02
2017-01-08T02:27:05.176Z,1019.03
2017-01-08T02:28:05.112Z,1019.02
2017-01-08T02:29:05.050Z,1019.05
2017-01-08T02:30:04.989Z,1019.06
2017-01-08T02:31:04.927Z,1019.05
2017-01-08T02:32:04.864Z,1019.11
2017-01-08T02:33:04.801Z,1019.18
2017-01-08T02:34:04.743Z,1019.15
2017-01-08T02:35:04.678Z,1019.12
2017-01-08T02:36:04.616Z,1019.1
2017-01-08T02:37:04.554Z,1019.09
2017-01-08T02:38:04.492Z,1019.09
2017-01-08T02:39:04.429Z,1019.05
2017-01-08T02:40:04.368Z,1019.09
2017-01-08T02:41:04.305Z,1019.11
2017-01-08T02:42:04.243Z,1019.13
2017-01-08T02:43:04.180Z,1019.12
2017-01-08T02:44:04.118Z,1019.11
2017-01-08T02:45:04.057Z,1019.15
2017-01-08T02:46:03.994Z,1019.13
2017-01-08T02:47:03.930Z,1019.19
2017-01-08T02:48:03.871Z,1019.22
2017-01-08T02:49:03.806Z,1019.16
2017-01-08T02:50:03.743Z,1019.2
2017-01-08T02:51:03.682Z,1019.19
2017-01-08T02:52:03.620Z,1019.2
2017-01-08T02:53:03.558Z,1019.2
2017-01-08T02:54:03.495Z,1019.21
2017-01-08T02:55:03.432Z,1019.18
2017-01-08T02:56:03.370Z,1019.19
2017-01-08T02:57:03.308Z,1019.18
2017-01-08T02:58:03.246Z,1019.18
2017-01-08T02:59:03.184Z,1019.21
2017-01-08T03:00:03.122Z,1019.26
2017-01-08T03:01:03.059Z,1019.28
2017-01-08T03:02:02.997Z,1019.28
2017-01-08T03:03:02.934Z,1019.29
2017-01-08T03:04:02.872Z,1019.33
2017-01-08T03:05:02.809Z,1019.36
2017-01-08T03:06:02.747Z,1019.42
2017-01-08T03:07:02.684Z,1019.44
2017-01-08T03:08:02.621Z,1019.47
2017-01-08T03:09:02.558Z,1019.46
2017-01-08T03:10:02.497Z,1019.43
2017-01-08T03:11:02.433Z,1019.47
2017-01-08T03:12:02.372Z,1019.44
2017-01-08T03:13:02.309Z,1019.4
2017-01-08T03:14:02.246Z,1019.41
2017-01-08T03:15:02.186Z,1019.4
2017-01-08T03:16:02.121Z,1019.4
2017-01-08T03:17:02.058Z,1019.39
2017-01-08T03:18:02.001Z,1019.4
2017-01-08T03:19:01.934Z,1019.38
2017-01-08T03:20:01.872Z,1019.33
2017-01-08T03:21:01.809Z,1019.34
2017-01-08T03:22:01.746Z,1019.36
2017-01-08T03:23:01.684Z,1019.29
2017-01-08T03:24:01.621Z,1019.23
2017-01-08T03:25:01.559Z,1019.21
2017-01-08T03:26:01.498Z,1019.2
2017-01-08T03:27:01.434Z,1019.16
2017-01-08T03:28:01.374Z,1019.16
2017-01-08T03:29:01.311Z,1019.15
2017-01-08T03:30:01.249Z,1019.15
2017-01-08T03:31:01.185Z,1019.09
2017-01-08T03:32:01.124Z,1019.13
2017-01-08T03:33:01.062Z,1019.11
2017-01-08T03:34:01.001Z,1019.15
2017-01-08T03:35:00.938Z,1019.13
2017-01-08T03:36:00.877Z,1019.16
2017-01-08T03:37:00.816Z,1019.14
2017-01-08T03:38:00.752Z,1019.16
2017-01-08T03:39:00.690Z,1019.13
2017-01-08T03:40:00.628Z,1019.12
2017-01-08T03:41:00.568Z,1019.12
2017-01-08T03:42:00.503Z,1019.06
2017-01-08T03:43:00.443Z,1019.06
2017-01-08T03:44:00.382Z,1019.08
2017-01-08T03:45:00.317Z,1019.12
2017-01-08T03:46:00.256Z,1019.12
2017-01-08T03:47:00.194Z,1019.11
2017-01-08T03:48:00.132Z,1019.08
2017-01-08T03:49:00.070Z,1019.03
2017-01-08T03:50:00.009Z,1019.02
2017-01-08T03:50:59.948Z,1019.02
2017-01-08T03:51:59.884Z,1019.01
2017-01-08T03:52:59.823Z,1019.07
2017-01-08T03:53:59.761Z,1019.06
2017-01-08T03:54:59.699Z,1019.09
2017-01-08T03:55:59.636Z,1019.11
2017-01-08T03:56:59.576Z,1019.09
2017-01-08T03:57:59.512Z,1019.11
2017-01-08T03:58:59.451Z,1019.14
2017-01-08T03:59:59.389Z,1019.12
2017-01-08T04:00:59.327Z,1019.09
2017-01-08T04:01:59.266Z,1019.07
2017-01-08T04:02:59.205Z,1019.08
2017-01-08T04:03:59.139Z,1019.06
2017-01-08T04:04:59.080Z,1019.04
2017-01-08T04:05:59.016Z,1019.05
2017-01-08T04:06:58.954Z,1019.06
2017-01-08T04:07:58.893Z,1019.03
2017-01-08T04:08:58.830Z,1019.03
2017-01-08T04:09:58.770Z,1019.03
2017-01-08T04:10:58.708Z,1018.99
2017-01-08T04:11:58.646Z,1019.03
2017-01-08T04:12:58.584Z,1019.03
2017-01-08T04:13:58.520Z,1019.02
2017-01-08T04:14:58.459Z,1018.96
2017-01-08T04:15:58.396Z,1019.01
2017-01-08T04:16:58.335Z,1018.98
2017-01-08T04:17:58.272Z,1019.03
2017-01-08T04:18:58.211Z,1019.06
2017-01-08T04:19:58.152Z,1019.12
2017-01-08T04:20:58.087Z,1019.18
2017-01-08T04:21:58.024Z,1019.27
2017-01-08T04:22:57.963Z,1019.3
2017-01-08T04:23:57.902Z,1019.38
2017-01-08T04:24:57.840Z,1019.37
2017-01-08T04:25:57.778Z,1019.37
2017-01-08T04:26:57.716Z,1019.44
2017-01-08T04:27:57.654Z,1019.49
2017-01-08T04:28:57.593Z,1019.49
2017-01-08T04:29:57.530Z,1019.55
2017-01-08T04:30:57.468Z,1019.56
2017-01-08T04:31:57.408Z,1019.59
2017-01-08T04:32:57.347Z,1019.61
2017-01-08T04:33:57.283Z,1019.61
2017-01-08T04:34:57.221Z,1019.65
2017-01-08T04:35:57.157Z,1019.71
2017-01-08T04:36:57.096Z,1019.75
2017-01-08T04:37:57.034Z,1019.76
2017-01-08T04:38:56.973Z,1019.79
2017-01-08T04:39:56.909Z,1019.78
2017-01-08T04:40:56.849Z,1019.79
2017-01-08T04:41:56.788Z,1019.81
2017-01-08T04:42:56.723Z,1019.85
2017-01-08T04:43:56.662Z,1019.87
2017-01-08T04:44:56.600Z,1019.88
2017-01-08T04:45:56.540Z,1019.93
2017-01-08T04:46:56.477Z,1019.92
2017-01-08T04:47:56.415Z,1019.89
2017-01-08T04:48:56.354Z,1019.87
2017-01-08T04:49:56.291Z,1019.87
2017-01-08T04:50:56.228Z,1019.92
2017-01-08T04:51:56.165Z,1019.95
2017-01-08T04:52:56.108Z,1019.97
2017-01-08T04:53:56.045Z,1019.98
2017-01-08T04:54:55.983Z,1020.01
2017-01-08T04:55:55.918Z,1020.04
2017-01-08T04:56:55.857Z,1020.04
2017-01-08T04:57:55.804Z,1020.05
2017-01-08T04:58:55.733Z,1020.03
2017-01-08T04:59:55.671Z,1020.09
2017-01-08T05:00:55.609Z,1020.09
2017-01-08T05:01:55.546Z,1020.12
2017-01-08T05:02:55.485Z,1020.07
2017-01-08T05:03:55.423Z,1019.99
2017-01-08T05:04:55.360Z,1019.99
2017-01-08T05:05:55.298Z,1019.99
2017-01-08T05:06:55.238Z,1019.97
2017-01-08T05:07:55.173Z,1020.05
2017-01-08T05:08:55.112Z,1020.08
2017-01-08T05:09:55.050Z,1020.04
2017-01-08T05:10:54.988Z,1020.08
2017-01-08T05:11:54.926Z,1020.09
2017-01-08T05:12:54.862Z,1020.11
2017-01-08T05:13:54.801Z,1020.1
2017-01-08T05:14:54.738Z,1020.11
2017-01-08T05:15:54.677Z,1020.13
2017-01-08T05:16:54.614Z,1020.18
2017-01-08T05:17:54.552Z,1020.25
2017-01-08T05:18:54.492Z,1020.25
2017-01-08T05:19:54.430Z,1020.27
2017-01-08T05:20:54.365Z,1020.26
2017-01-08T05:21:54.305Z,1020.25
2017-01-08T05:22:54.244Z,1020.31
2017-01-08T05:23:54.181Z,1020.3
2017-01-08T05:24:54.118Z,1020.37
2017-01-08T05:25:54.056Z,1020.36
2017-01-08T05:26:53.992Z,1020.4
2017-01-08T05:27:53.930Z,1020.35
2017-01-08T05:28:53.869Z,1020.41
2017-01-08T05:29:53.807Z,1020.44
2017-01-08T05:30:53.745Z,1020.4
2017-01-08T05:31:53.683Z,1020.4
2017-01-08T05:32:53.622Z,1020.39
2017-01-08T05:33:53.559Z,1020.43
2017-01-08T05:34:53.494Z,1020.45
2017-01-08T05:35:53.432Z,1020.48
2017-01-08T05:36:53.372Z,1020.53
2017-01-08T05:37:53.307Z,1020.58
2017-01-08T05:38:53.247Z,1020.56
2017-01-08T05:39:53.184Z,1020.58
2017-01-08T05:40:53.123Z,1020.56
2017-01-08T05:41:53.061Z,1020.55
2017-01-08T05:42:52.997Z,1020.56
2017-01-08T05:43:54.134Z,1020.56
2017-01-08T05:44:52.873Z,1020.57
2017-01-08T05:45:52.813Z,1020.6
2017-01-08T05:46:52.748Z,1020.61
2017-01-08T05:47:52.688Z,1020.63
2017-01-08T05:48:52.626Z,1020.66
2017-01-08T05:49:52.562Z,1020.66
2017-01-08T05:50:52.500Z,1020.68
2017-01-08T05:51:52.437Z,1020.73
2017-01-08T05:52:52.376Z,1020.77
2017-01-08T05:53:52.313Z,1020.72
2017-01-08T05:54:52.252Z,1020.77
2017-01-08T05:55:52.189Z,1020.73
2017-01-08T05:56:52.126Z,1020.71
2017-01-08T05:57:52.068Z,1020.7
2017-01-08T05:58:52.003Z,1020.7
2017-01-08T05:59:51.940Z,1020.72
2017-01-08T06:00:51.881Z,1020.74
2017-01-08T06:01:51.816Z,1020.77
2017-01-08T06:02:51.753Z,1020.76
2017-01-08T06:03:51.695Z,1020.77
2017-01-08T06:04:51.628Z,1020.77
2017-01-08T06:05:51.566Z,1020.78
2017-01-08T06:06:51.504Z,1020.76
2017-01-08T06:07:51.444Z,1020.74
2017-01-08T06:08:51.380Z,1020.71
2017-01-08T06:09:51.321Z,1020.67
2017-01-08T06:10:51.259Z,1020.66
2017-01-08T06:11:51.196Z,1020.72
2017-01-08T06:12:51.133Z,1020.75
2017-01-08T06:13:51.072Z,1020.78
2017-01-08T06:14:51.009Z,1020.87
2017-01-08T06:15:50.948Z,1020.87
2017-01-08T06:16:50.886Z,1020.9
2017-01-08T06:17:50.824Z,1020.91
2017-01-08T06:18:50.761Z,1020.9
2017-01-08T06:19:50.701Z,1020.88
2017-01-08T06:20:50.639Z,1020.91
2017-01-08T06:21:50.577Z,1020.95
2017-01-08T06:22:50.514Z,1021.05
2017-01-08T06:23:50.453Z,1021.14
2017-01-08T06:24:50.391Z,1021.14
2017-01-08T06:25:50.328Z,1021.11
2017-01-08T06:26:50.267Z,1021.17
2017-01-08T06:27:50.207Z,1021.18
2017-01-08T06:28:50.143Z,1021.2
2017-01-08T06:29:50.083Z,1021.22
2017-01-08T06:30:50.021Z,1021.23
2017-01-08T06:31:49.958Z,1021.25
2017-01-08T06:32:49.897Z,1021.22
2017-01-08T06:33:49.835Z,1021.23
2017-01-08T06:34:49.774Z,1021.25
2017-01-08T06:35:49.711Z,1021.28
2017-01-08T06:36:49.650Z,1021.29
2017-01-08T06:37:49.588Z,1021.31
2017-01-08T06:38:49.527Z,1021.33
2017-01-08T06:39:49.462Z,1021.38
2017-01-08T06:40:49.401Z,1021.41
2017-01-08T06:41:49.340Z,1021.47
2017-01-08T06:42:49.280Z,1021.55
2017-01-08T06:43:49.217Z,1021.59
2017-01-08T06:44:49.154Z,1021.62
2017-01-08T06:45:49.093Z,1021.68
2017-01-08T06:46:49.031Z,1021.7
2017-01-08T06:47:48.969Z,1021.7
2017-01-08T06:48:48.907Z,1021.71
2017-01-08T06:49:48.845Z,1021.74
2017-01-08T06:50:48.783Z,1021.74
2017-01-08T06:51:48.721Z,1021.75
2017-01-08T06:52:48.659Z,1021.77
2017-01-08T06:53:48.598Z,1021.78
2017-01-08T06:54:48.535Z,1021.78
2017-01-08T06:55:48.474Z,1021.77
2017-01-08T06:56:48.413Z,1021.77
2017-01-08T06:57:48.351Z,1021.76
2017-01-08T06:58:48.288Z,1021.74
2017-01-08T06:59:48.226Z,1021.77
2017-01-08T07:00:48.166Z,1021.76
2017-01-08T07:01:48.102Z,1021.78
2017-01-08T07:02:48.041Z,1021.77
2017-01-08T07:03:47.979Z,1021.78
2017-01-08T07:04:47.917Z,1021.83
2017-01-08T07:05:47.854Z,1021.78
2017-01-08T07:06:47.793Z,1021.76
2017-01-08T07:07:47.739Z,1021.77
2017-01-08T07:08:47.670Z,1021.78
2017-01-08T07:09:47.608Z,1021.85
2017-01-08T07:10:47.545Z,1021.85
2017-01-08T07:11:47.485Z,1021.9
2017-01-08T07:12:47.422Z,1021.94
2017-01-08T07:13:47.362Z,1021.9
2017-01-08T07:14:47.300Z,1021.9
2017-01-08T07:15:47.236Z,1021.92
2017-01-08T07:16:47.175Z,1021.94
2017-01-08T07:17:47.112Z,1021.94
2017-01-08T07:18:47.049Z,1021.93
2017-01-08T07:19:46.987Z,1021.9
2017-01-08T07:20:46.925Z,1021.9
2017-01-08T07:21:46.865Z,1021.91
2017-01-08T07:22:46.806Z,1021.88
2017-01-08T07:23:46.742Z,1021.86
2017-01-08T07:24:46.677Z,1021.87
2017-01-08T07:25:46.615Z,1021.89
2017-01-08T07:26:46.555Z,1021.9
2017-01-08T07:27:46.492Z,1021.98
2017-01-08T07:28:46.429Z,1022.02
2017-01-08T07:29:46.368Z,1022.08
2017-01-08T07:30:46.306Z,1022.11
2017-01-08T07:31:46.242Z,1022.09
2017-01-08T07:32:46.181Z,1022.08
2017-01-08T07:33:46.120Z,1022.08
2017-01-08T07:34:46.058Z,1022.05
2017-01-08T07:35:45.994Z,1022.06
2017-01-08T07:36:45.932Z,1022.11
2017-01-08T07:37:45.872Z,1022.07
2017-01-08T07:38:45.809Z,1022.13
2017-01-08T07:39:45.748Z,1022.12
2017-01-08T07:40:45.685Z,1022.17
2017-01-08T07:41:45.623Z,1022.14
2017-01-08T07:42:45.561Z,1022.19
2017-01-08T07:43:45.499Z,1022.18
2017-01-08T07:44:45.436Z,1022.15
2017-01-08T07:45:45.375Z,1022.14
2017-01-08T07:46:45.312Z,1022.17
2017-01-08T07:47:45.251Z,1022.16
2017-01-08T07:48:45.189Z,1022.21
2017-01-08T07:49:45.125Z,1022.2
2017-01-08T07:50:45.063Z,1022.21
2017-01-08T07:51:45.003Z,1022.19
2017-01-08T07:52:44.940Z,1022.2
2017-01-08T07:53:44.877Z,1022.23
2017-01-08T07:54:44.815Z,1022.23
2017-01-08T07:55:44.753Z,1022.23
2017-01-08T07:56:44.692Z,1022.32
2017-01-08T07:57:44.628Z,1022.34
2017-01-08T07:58:44.567Z,1022.34
2017-01-08T07:59:44.505Z,1022.34
2017-01-08T08:00:44.443Z,1022.39
2017-01-08T08:01:44.380Z,1022.4
2017-01-08T08:02:44.319Z,1022.46
2017-01-08T08:03:44.256Z,1022.49
2017-01-08T08:04:44.194Z,1022.54
2017-01-08T08:05:44.132Z,1022.54
2017-01-08T08:06:44.069Z,1022.58
2017-01-08T08:07:44.007Z,1022.6
2017-01-08T08:08:43.945Z,1022.59
2017-01-08T08:09:43.883Z,1022.62
2017-01-08T08:10:43.820Z,1022.67
2017-01-08T08:11:43.758Z,1022.66
2017-01-08T08:12:43.696Z,1022.71
2017-01-08T08:13:43.632Z,1022.7
2017-01-08T08:14:43.569Z,1022.71
2017-01-08T08:15:43.508Z,1022.68
2017-01-08T08:16:43.446Z,1022.72
2017-01-08T08:17:43.384Z,1022.73
2017-01-08T08:18:43.321Z,1022.75
2017-01-08T08:19:43.259Z,1022.77
2017-01-08T08:20:43.198Z,1022.78
2017-01-08T08:21:43.135Z,1022.77
2017-01-08T08:22:43.071Z,1022.78
2017-01-08T08:23:43.008Z,1022.81
2017-01-08T08:24:42.948Z,1022.81
2017-01-08T08:25:42.884Z,1022.83
2017-01-08T08:26:42.822Z,1022.82
2017-01-08T08:27:42.760Z,1022.86
2017-01-08T08:28:42.697Z,1022.85
2017-01-08T08:29:42.634Z,1022.9
2017-01-08T08:30:42.572Z,1022.94
2017-01-08T08:31:42.511Z,1022.9
2017-01-08T08:32:42.449Z,1022.89
2017-01-08T08:33:42.386Z,1022.84
2017-01-08T08:34:42.324Z,1022.85
2017-01-08T08:35:42.262Z,1022.85
2017-01-08T08:36:42.197Z,1022.85
2017-01-08T08:37:42.135Z,1022.85
2017-01-08T08:38:42.074Z,1022.89
2017-01-08T08:39:42.011Z,1022.92
2017-01-08T08:40:41.949Z,1022.93
2017-01-08T08:41:41.886Z,1022.93
2017-01-08T08:42:41.824Z,1022.93
2017-01-08T08:43:41.764Z,1022.91
2017-01-08T08:44:41.700Z,1022.85
2017-01-08T08:45:41.639Z,1022.83
2017-01-08T08:46:41.576Z,1022.87
2017-01-08T08:47:41.512Z,1022.91
2017-01-08T08:48:41.452Z,1022.93
2017-01-08T08:49:41.389Z,1022.93
2017-01-08T08:50:41.328Z,1022.93
2017-01-08T08:51:41.264Z,1022.94
2017-01-08T08:52:41.202Z,1022.95
2017-01-08T08:53:41.141Z,1022.96
2017-01-08T08:54:41.079Z,1023
2017-01-08T08:55:41.017Z,1023.05
2017-01-08T08:56:40.955Z,1023.01
2017-01-08T08:57:40.892Z,1023.02
2017-01-08T08:58:40.829Z,1023.09
2017-01-08T08:59:40.768Z,1023.06
2017-01-08T09:00:40.707Z,1023.08
2017-01-08T09:01:40.646Z,1023.08
2017-01-08T09:02:40.582Z,1023.06
2017-01-08T09:03:40.522Z,1023.05
2017-01-08T09:04:40.459Z,1023.06
2017-01-08T09:05:40.397Z,1023.06
2017-01-08T09:06:40.334Z,1023.06
2017-01-08T09:07:40.271Z,1023.12
2017-01-08T09:08:40.212Z,1023.11
2017-01-08T09:09:40.148Z,1023.11
2017-01-08T09:10:40.086Z,1023.15
2017-01-08T09:11:40.024Z,1023.16
2017-01-08T09:12:39.964Z,1023.21
2017-01-08T09:13:39.900Z,1023.19
2017-01-08T09:14:39.839Z,1023.18
2017-01-08T09:15:39.783Z,1023.21
2017-01-08T09:16:39.718Z,1023.23
2017-01-08T09:17:39.653Z,1023.24
2017-01-08T09:18:39.591Z,1023.27
2017-01-08T09:19:39.530Z,1023.27
2017-01-08T09:20:39.468Z,1023.28
2017-01-08T09:21:39.406Z,1023.3
2017-01-08T09:22:39.344Z,1023.31
2017-01-08T09:23:39.282Z,1023.33
2017-01-08T09:24:39.221Z,1023.35
2017-01-08T09:25:39.157Z,1023.36
2017-01-08T09:26:39.097Z,1023.35
2017-01-08T09:27:39.033Z,1023.37
2017-01-08T09:28:38.972Z,1023.37
2017-01-08T09:29:38.910Z,1023.37
2017-01-08T09:30:38.848Z,1023.38
2017-01-08T09:31:38.786Z,1023.41
2017-01-08T09:32:38.724Z,1023.43
2017-01-08T09:33:38.662Z,1023.47
2017-01-08T09:34:38.600Z,1023.46
2017-01-08T09:35:38.538Z,1023.46
2017-01-08T09:36:38.476Z,1023.44
2017-01-08T09:37:38.415Z,1023.47
2017-01-08T09:38:38.352Z,1023.46
2017-01-08T09:39:38.291Z,1023.44
2017-01-08T09:40:38.230Z,1023.46
2017-01-08T09:41:38.168Z,1023.52
2017-01-08T09:42:38.105Z,1023.48
2017-01-08T09:43:38.044Z,1023.52
2017-01-08T09:44:37.982Z,1023.48
2017-01-08T09:45:37.920Z,1023.5
2017-01-08T09:46:37.858Z,1023.51
2017-01-08T09:47:37.796Z,1023.58
2017-01-08T09:48:37.733Z,1023.55
2017-01-08T09:49:37.672Z,1023.52
2017-01-08T09:50:37.611Z,1023.55
2017-01-08T09:51:37.550Z,1023.54
2017-01-08T09:52:37.487Z,1023.55
2017-01-08T09:53:37.423Z,1023.58
2017-01-08T09:54:37.362Z,1023.65
2017-01-08T09:55:37.308Z,1023.68
2017-01-08T09:56:37.238Z,1023.72
2017-01-08T09:57:37.175Z,1023.71
2017-01-08T09:58:37.115Z,1023.72
2017-01-08T09:59:37.052Z,1023.7
2017-01-08T10:00:36.990Z,1023.74
2017-01-08T10:01:36.929Z,1023.73
2017-01-08T10:02:36.866Z,1023.72
2017-01-08T10:03:36.805Z,1023.76
2017-01-08T10:04:36.742Z,1023.77
2017-01-08T10:05:36.680Z,1023.81
2017-01-08T10:06:36.619Z,1023.82
2017-01-08T10:07:36.557Z,1023.84
2017-01-08T10:08:36.493Z,1023.83
2017-01-08T10:09:36.435Z,1023.87
2017-01-08T10:10:36.370Z,1023.87
2017-01-08T10:11:36.307Z,1023.91
2017-01-08T10:12:36.245Z,1023.91
2017-01-08T10:13:36.183Z,1023.95
2017-01-08T10:14:36.121Z,1023.94
2017-01-08T10:15:36.060Z,1023.95
2017-01-08T10:16:35.998Z,1023.96
2017-01-08T10:17:35.936Z,1023.99
2017-01-08T10:18:35.873Z,1024
2017-01-08T10:19:35.810Z,1023.99
2017-01-08T10:20:35.750Z,1023.98
2017-01-08T10:21:35.690Z,1024.01
2017-01-08T10:22:35.624Z,1023.99
2017-01-08T10:23:35.563Z,1023.99
2017-01-08T10:24:35.501Z,1023.98
2017-01-08T10:25:35.439Z,1023.96
2017-01-08T10:26:35.376Z,1023.96
2017-01-08T10:27:35.314Z,1023.94
2017-01-08T10:28:35.253Z,1023.91
2017-01-08T10:29:35.191Z,1023.93
2017-01-08T10:30:35.129Z,1023.92
2017-01-08T10:31:35.077Z,1023.97
2017-01-08T10:32:35.010Z,1023.95
2017-01-08T10:33:34.941Z,1023.95
2017-01-08T10:34:34.881Z,1023.97
2017-01-08T10:35:34.818Z,1024.02
2017-01-08T10:36:34.757Z,1024.03
2017-01-08T10:37:34.694Z,1024.03
2017-01-08T10:38:34.632Z,1024.03
2017-01-08T10:39:34.571Z,1024.02
2017-01-08T10:40:34.508Z,1023.99
2017-01-08T10:41:34.449Z,1024.07
2017-01-08T10:42:34.384Z,1024.09
2017-01-08T10:43:34.322Z,1024.13
2017-01-08T10:44:34.258Z,1024.12
2017-01-08T10:45:34.197Z,1024.12
2017-01-08T10:46:34.136Z,1024.14
2017-01-08T10:47:34.072Z,1024.16
2017-01-08T10:48:34.011Z,1024.16
2017-01-08T10:49:33.948Z,1024.18
2017-01-08T10:50:33.887Z,1024.19
2017-01-08T10:51:33.823Z,1024.18
2017-01-08T10:52:33.762Z,1024.2
2017-01-08T10:53:33.700Z,1024.22
2017-01-08T10:54:33.638Z,1024.23
2017-01-08T10:55:33.576Z,1024.19
2017-01-08T10:56:33.512Z,1024.19
2017-01-08T10:57:33.450Z,1024.19
2017-01-08T10:58:33.389Z,1024.17
2017-01-08T10:59:33.328Z,1024.21
2017-01-08T11:00:33.265Z,1024.14
2017-01-08T11:01:33.201Z,1024.18
2017-01-08T11:02:33.143Z,1024.2
2017-01-08T11:03:33.079Z,1024.12
2017-01-08T11:04:33.016Z,1024.11
2017-01-08T11:05:32.954Z,1024.14
2017-01-08T11:06:32.891Z,1024.13
2017-01-08T11:07:32.829Z,1024.1
2017-01-08T11:08:32.767Z,1024.13
2017-01-08T11:09:32.706Z,1024.12
2017-01-08T11:10:32.643Z,1024.11
2017-01-08T11:11:32.581Z,1024.1
2017-01-08T11:12:32.519Z,1024.13
2017-01-08T11:13:32.456Z,1024.16
2017-01-08T11:14:32.394Z,1024.11
2017-01-08T11:15:32.332Z,1024.12
2017-01-08T11:16:32.271Z,1024.13
2017-01-08T11:17:32.207Z,1024.13
2017-01-08T11:18:32.144Z,1024.11
2017-01-08T11:19:32.083Z,1024.13
2017-01-08T11:20:32.020Z,1024.13
2017-01-08T11:21:31.957Z,1024.17
2017-01-08T11:22:31.896Z,1024.15
2017-01-08T11:23:31.834Z,1024.18
2017-01-08T11:24:31.771Z,1024.2
2017-01-08T11:25:31.709Z,1024.22
2017-01-08T11:26:31.652Z,1024.22
2017-01-08T11:27:31.586Z,1024.25
2017-01-08T11:28:31.522Z,1024.23
2017-01-08T11:29:31.462Z,1024.24
2017-01-08T11:30:31.399Z,1024.24
2017-01-08T11:31:31.539Z,1024.22
2017-01-08T11:32:31.274Z,1024.22
2017-01-08T11:33:31.212Z,1024.23
2017-01-08T11:34:31.150Z,1024.22
2017-01-08T11:35:31.087Z,1024.23
2017-01-08T11:36:31.026Z,1024.23
2017-01-08T11:37:30.964Z,1024.22
2017-01-08T11:38:30.902Z,1024.2
2017-01-08T11:39:30.838Z,1024.2
2017-01-08T11:40:30.778Z,1024.17
2017-01-08T11:41:30.715Z,1024.15
2017-01-08T11:42:30.653Z,1024.16
2017-01-08T11:43:30.590Z,1024.12
2017-01-08T11:44:30.529Z,1024.17
2017-01-08T11:45:30.466Z,1024.14
2017-01-08T11:46:30.404Z,1024.16
2017-01-08T11:47:30.342Z,1024.16
2017-01-08T11:48:30.280Z,1024.18
2017-01-08T11:49:30.220Z,1024.17
2017-01-08T11:50:30.157Z,1024.2
2017-01-08T11:51:30.095Z,1024.2
2017-01-08T11:52:30.034Z,1024.22
2017-01-08T11:53:29.972Z,1024.23
2017-01-08T11:54:29.910Z,1024.25
2017-01-08T11:55:29.847Z,1024.26
2017-01-08T11:56:29.785Z,1024.27
2017-01-08T11:57:29.723Z,1024.27
2017-01-08T11:58:29.662Z,1024.27
2017-01-08T11:59:29.600Z,1024.29
2017-01-08T12:00:29.539Z,1024.33
2017-01-08T12:01:29.475Z,1024.3
2017-01-08T12:02:29.415Z,1024.31
2017-01-08T12:03:29.352Z,1024.34
2017-01-08T12:04:29.290Z,1024.34
2017-01-08T12:05:29.229Z,1024.3
2017-01-08T12:06:29.167Z,1024.36
2017-01-08T12:07:29.107Z,1024.29